アデレード の空港の天気 - METARとTAF

アデレード空港 ( YPAD / ADL ) - オーストラリア 南オーストラリア州アデレード
飛行場実況気象(Metar)
観測時間12/10 15:30 ACDT (12/10 05:00 UTC)
風向・風速南東 8m/s
視程10km以上
天気現象
なし
気温27℃
湿度23%
気圧1016hPa
METARYPAD 100500Z 14015KT CAVOK 27/04 Q1016 NOSIG
過去の天気等 Google飛行場航空写真 Wunderground天気予報

過去48時間のMETAR

飛行場予報(TAF)
発表時間: 12/10 15:31 ACDT (12/10 05:01 UTC)
予報対象時間: 10日16時 ACDT ~ 11日22時 ACDT
風向・風速南東 6m/s
視程10km以上
なし
11日0時 ACDT から
風向・風速不定 3m/s
視程10km以上
なし
11日13時 ACDT から
風向・風速西南西 4m/s
視程10km以上
なし
11日19時 ACDT から
風向・風速東 5m/s
視程10km以上
なし
TAF YPAD 100501Z 1006/1112 14012KT CAVOK
FM101400 VRB05KT CAVOK
FM110300 24008KT CAVOK
FM110900 10010KT CAVOK